Time;durP1;ratioP1;P1;durP2;ratioP2;P2;SDS_P1;SDS_P2;PMS_P1;PMS_P2;Temp;Humidity;BMP_temperature;BMP_pressure;BME280_temperature;BME280_humidity;BME280_pressure;Samples;Min_cycle;Max_cycle;Signal;HPM_P1;HPM_P2
2022/11/17 00:01:18;;;;;;;15.85;12.75;;;8.60;99.90;;;;;;5064787;28;20052;-80
2022/11/17 00:03:45;;;;;;;17.30;11.65;;;8.50;99.90;;;;;;5069576;28;20040;-80
2022/11/17 00:06:11;;;;;;;20.55;11.98;;;8.50;99.90;;;;;;5068236;28;20131;-78
2022/11/17 00:08:36;;;;;;;19.38;12.25;;;8.50;99.90;;;;;;5057441;28;20056;-81
2022/11/17 00:11:02;;;;;;;18.40;14.20;;;8.50;99.90;;;;;;5066479;28;20056;-80
2022/11/17 00:16:18;;;;;;;10.23;8.20;;;8.50;99.90;;;;;;5064621;28;20072;-79
2022/11/17 00:21:28;;;;;;;16.08;12.48;;;8.60;99.90;;;;;;5068154;28;20048;-81
2022/11/17 00:23:55;;;;;;;15.10;10.88;;;8.60;99.90;;;;;;5056356;28;20101;-79
2022/11/17 00:26:29;;;;;;;18.02;13.27;;;8.60;99.90;;;;;;5069577;28;20044;-79
2022/11/17 00:29:00;;;;;;;16.45;10.27;;;8.60;99.90;;;;;;5067815;28;20040;-79
2022/11/17 00:34:17;;;;;;;15.93;11.98;;;8.60;99.90;;;;;;5061150;28;20127;-82
2022/11/17 00:36:53;;;;;;;14.93;11.95;;;8.60;99.90;;;;;;5073603;28;20056;-80
2022/11/17 00:39:22;;;;;;;12.90;10.70;;;8.60;99.90;;;;;;5072674;28;20079;-79
2022/11/17 00:41:48;;;;;;;15.05;8.55;;;8.60;99.90;;;;;;5062234;28;20043;-80
2022/11/17 00:44:14;;;;;;;15.88;10.35;;;8.60;99.90;;;;;;5070522;28;20047;-78
2022/11/17 00:46:41;;;;;;;11.85;10.13;;;8.60;99.90;;;;;;5067360;28;20397;-80
2022/11/17 00:49:08;;;;;;;13.13;9.93;;;8.60;99.90;;;;;;5058290;28;20052;-79
2022/11/17 00:51:34;;;;;;;12.02;9.30;;;8.60;99.90;;;;;;5070020;28;20789;-82
2022/11/17 00:54:00;;;;;;;14.55;11.35;;;8.60;99.90;;;;;;5058394;28;20400;-79
2022/11/17 00:56:26;;;;;;;14.52;11.75;;;8.60;99.90;;;;;;5071288;28;20048;-80
2022/11/17 00:58:52;;;;;;;18.80;11.00;;;8.60;99.90;;;;;;5065136;28;20162;-80
2022/11/17 01:01:19;;;;;;;12.80;9.43;;;8.60;99.90;;;;;;5062955;28;20040;-79
2022/11/17 01:03:44;;;;;;;13.23;10.70;;;8.60;99.90;;;;;;5065750;28;20066;-81
2022/11/17 01:06:13;;;;;;;14.88;11.20;;;8.60;99.90;;;;;;5056840;28;20460;-80
2022/11/17 01:08:39;;;;;;;16.80;12.23;;;8.50;99.90;;;;;;5065125;28;20050;-80
2022/11/17 01:11:15;;;;;;;12.38;8.38;;;8.60;99.90;;;;;;5072102;28;20063;-79
2022/11/17 01:13:41;;;;;;;13.68;11.88;;;8.60;99.90;;;;;;5069672;28;20052;-80
2022/11/17 01:16:13;;;;;;;18.30;10.20;;;8.60;99.90;;;;;;5060840;28;20464;-80
2022/11/17 01:18:39;;;;;;;14.07;9.23;;;8.70;99.90;;;;;;5069660;28;20491;-81
2022/11/17 01:21:18;;;;;;;13.05;10.85;;;8.60;99.90;;;;;;5060564;28;20048;-81
2022/11/17 01:23:44;;;;;;;12.10;10.35;;;8.60;99.90;;;;;;5091043;28;20052;-80
2022/11/17 01:26:13;;;;;;;9.88;8.40;;;8.70;99.90;;;;;;5060925;28;20053;-80
2022/11/17 01:28:40;;;;;;;9.70;8.15;;;8.60;99.90;;;;;;5055855;28;20047;-81
2022/11/17 01:31:17;;;;;;;11.18;8.65;;;8.60;99.90;;;;;;5066768;28;20048;-82
2022/11/17 01:33:43;;;;;;;13.05;10.38;;;8.50;99.90;;;;;;5064637;28;20123;-80
2022/11/17 01:36:12;;;;;;;14.60;11.48;;;8.50;99.90;;;;;;5068141;28;20044;-79
2022/11/17 01:38:38;;;;;;;9.50;8.10;;;8.50;99.90;;;;;;5056851;28;20484;-81
2022/11/17 01:41:06;;;;;;;17.20;11.18;;;8.50;99.90;;;;;;5065266;28;20059;-80
2022/11/17 01:43:52;;;;;;;16.38;10.23;;;8.50;99.90;;;;;;5070945;28;20044;-81
2022/11/17 01:46:31;;;;;;;12.05;9.90;;;8.80;99.90;;;;;;5060839;28;20788;-80
2022/11/17 01:49:05;;;;;;;13.50;9.60;;;8.50;99.90;;;;;;5050105;28;20066;-80
2022/11/17 01:51:34;;;;;;;14.07;9.90;;;8.50;99.90;;;;;;5068692;28;20040;-80
2022/11/17 01:54:00;;;;;;;12.45;10.73;;;8.50;99.90;;;;;;5068790;28;20147;-78
2022/11/17 01:56:37;;;;;;;16.23;8.55;;;8.40;99.90;;;;;;5064574;28;20044;-80
2022/11/17 01:59:09;;;;;;;13.48;10.98;;;8.50;99.90;;;;;;5069883;28;20086;-80
2022/11/17 02:01:54;;;;;;;15.15;9.13;;;8.40;99.90;;;;;;5058130;28;20052;-80
2022/11/17 02:04:21;;;;;;;11.38;8.68;;;8.40;99.90;;;;;;5056481;28;20123;-80
2022/11/17 02:06:51;;;;;;;16.35;9.30;;;8.40;99.90;;;;;;5056935;28;20125;-80
2022/11/17 02:09:17;;;;;;;14.07;9.85;;;8.40;99.90;;;;;;5056415;28;20123;-81
2022/11/17 02:11:43;;;;;;;12.38;10.80;;;8.40;99.90;;;;;;5062218;28;20976;-82
2022/11/17 02:14:09;;;;;;;12.30;8.32;;;8.40;99.90;;;;;;5062154;28;20481;-80
2022/11/17 02:16:35;;;;;;;14.75;11.43;;;8.40;99.90;;;;;;5077550;28;20060;-82
2022/11/17 02:19:01;;;;;;;13.48;9.40;;;8.40;99.90;;;;;;5105017;27;20162;-81
2022/11/17 02:21:41;;;;;;;12.70;9.95;;;8.40;99.90;;;;;;5075805;28;20080;-80
2022/11/17 02:24:26;;;;;;;15.23;10.85;;;8.40;99.90;;;;;;5063393;28;20048;-80
2022/11/17 02:27:17;;;;;;;14.45;10.10;;;8.40;99.90;;;;;;5068447;28;20905;-81
2022/11/17 02:30:00;;;;;;;11.85;10.00;;;8.40;99.90;;;;;;5068332;28;20824;-82
2022/11/17 02:32:32;;;;;;;;;;;8.90;99.90;;;;;;5067272;28;20055;-81
2022/11/17 02:35:16;;;;;;;16.02;11.80;;;8.30;99.90;;;;;;5063707;28;19924;-79
2022/11/17 02:37:57;;;;;;;12.52;10.52;;;8.30;99.90;;;;;;5059265;28;20082;-81
2022/11/17 02:40:33;;;;;;;12.20;10.15;;;8.30;99.90;;;;;;5060592;28;20048;-80
2022/11/17 02:45:57;;;;;;;15.10;9.13;;;8.10;99.90;;;;;;5058801;28;20182;-81
2022/11/17 02:48:32;;;;;;;15.48;13.48;;;8.10;99.90;;;;;;5068084;28;20055;-79
2022/11/17 02:50:58;;;;;;;15.70;12.52;;;8.10;99.90;;;;;;5069054;28;20044;-79
2022/11/17 02:53:26;;;;;;;19.08;13.82;;;8.40;99.90;;;;;;5074442;28;20043;-79
2022/11/17 02:55:53;;;;;;;16.88;14.38;;;8.00;99.90;;;;;;5065127;28;20483;-80
2022/11/17 02:58:19;;;;;;;16.38;12.27;;;8.00;99.90;;;;;;5059479;28;20181;-77
2022/11/17 03:00:48;;;;;;;17.30;10.38;;;8.00;99.90;;;;;;5078131;28;20264;-79
2022/11/17 03:03:32;;;;;;;19.25;14.63;;;8.00;99.90;;;;;;5065003;28;20049;-79
2022/11/17 03:06:28;;;;;;;20.85;14.63;;;8.00;99.90;;;;;;5060537;28;20128;-78
2022/11/17 03:09:31;;;;;;;18.30;14.02;;;7.90;99.90;;;;;;5047892;28;20370;-77
2022/11/17 03:12:09;;;;;;;15.98;11.77;;;7.90;99.90;;;;;;5069351;28;20099;-76
2022/11/17 03:14:40;;;;;;;20.25;15.32;;;7.80;99.90;;;;;;5065478;28;20155;-73
2022/11/17 03:17:20;;;;;;;19.77;14.63;;;7.80;99.90;;;;;;5063246;28;20063;-73
2022/11/17 03:20:12;;;;;;;18.67;14.52;;;7.80;99.90;;;;;;5069814;28;20400;-73
2022/11/17 03:23:12;;;;;;;22.25;16.00;;;7.70;99.90;;;;;;5069609;28;20551;-70
2022/11/17 03:25:41;;;;;;;19.20;14.95;;;7.70;99.90;;;;;;5061088;28;20841;-70
2022/11/17 03:28:10;;;;;;;19.98;14.80;;;7.70;99.90;;;;;;5052330;28;20044;-71
2022/11/17 03:30:39;;;;;;;22.42;15.88;;;7.60;99.90;;;;;;5059438;28;20040;-71
2022/11/17 03:33:14;;;;;;;18.58;14.30;;;7.60;99.90;;;;;;5060158;28;20047;-71
2022/11/17 03:35:44;;;;;;;17.67;14.07;;;7.60;99.90;;;;;;5067076;28;20052;-70
2022/11/17 03:38:13;;;;;;;21.65;15.25;;;7.60;99.90;;;;;;5060834;28;20040;-70
2022/11/17 03:40:43;;;;;;;20.77;15.23;;;7.70;99.90;;;;;;5068102;28;20040;-70
2022/11/17 03:43:14;;;;;;;19.73;14.88;;;7.50;99.90;;;;;;5061454;28;20048;-71
2022/11/17 03:46:04;;;;;;;21.73;15.30;;;7.50;99.90;;;;;;5064187;28;20075;-70
2022/11/17 03:48:42;;;;;;;22.38;16.63;;;7.50;99.90;;;;;;5060466;28;20051;-70
2022/11/17 03:51:23;;;;;;;17.23;13.25;;;7.50;99.90;;;;;;5059544;28;20123;-69
2022/11/17 03:53:49;;;;;;;25.88;15.43;;;7.40;99.90;;;;;;5058065;28;20748;-70
2022/11/17 03:56:45;;;;;;;23.60;14.65;;;7.50;99.90;;;;;;5075773;28;20054;-69
2022/11/17 03:59:26;;;;;;;24.13;15.88;;;7.40;99.90;;;;;;5063859;28;20059;-70
2022/11/17 04:01:52;;;;;;;23.83;18.10;;;7.40;99.90;;;;;;5054472;28;20037;-70
2022/11/17 04:04:20;;;;;;;19.88;15.50;;;7.40;99.90;;;;;;5064129;28;20082;-69
2022/11/17 04:06:47;;;;;;;20.02;13.75;;;7.40;99.90;;;;;;5057768;28;20103;-72
2022/11/17 04:09:12;;;;;;;21.08;14.32;;;7.30;99.90;;;;;;5059683;28;20567;-70
2022/11/17 04:17:07;;;;;;;19.58;14.13;;;7.30;99.90;;;;;;5062258;28;20613;-70
2022/11/17 04:19:32;;;;;;;17.33;14.77;;;7.30;99.90;;;;;;5061636;28;20159;-71
2022/11/17 04:21:58;;;;;;;20.90;14.45;;;7.20;99.90;;;;;;5062681;28;20532;-70
2022/11/17 04:24:24;;;;;;;17.77;13.82;;;7.30;99.90;;;;;;5060120;28;20048;-70
2022/11/17 04:29:33;;;;;;;15.98;13.02;;;7.20;99.90;;;;;;5073305;28;20438;-71
2022/11/17 04:31:59;;;;;;;16.10;13.02;;;7.30;99.90;;;;;;5060478;28;20041;-71
2022/11/17 04:34:25;;;;;;;21.20;14.88;;;7.20;99.90;;;;;;5060344;28;20091;-71
2022/11/17 04:36:51;;;;;;;21.63;14.00;;;7.20;99.90;;;;;;5058384;28;20051;-71
2022/11/17 04:39:17;;;;;;;19.67;13.35;;;7.30;99.90;;;;;;5071849;28;20056;-71
2022/11/17 04:42:02;;;;;;;16.95;12.80;;;7.10;99.90;;;;;;5057683;28;20168;-70
2022/11/17 04:44:30;;;;;;;18.60;13.05;;;7.10;99.90;;;;;;5066713;28;20618;-70
2022/11/17 04:46:57;;;;;;;15.75;13.48;;;7.10;99.90;;;;;;5070493;28;20045;-69
2022/11/17 04:49:24;;;;;;;15.43;10.52;;;7.00;99.90;;;;;;5058162;28;20514;-71
2022/11/17 04:51:51;;;;;;;16.85;12.80;;;7.00;99.90;;;;;;5058474;28;20048;-70
2022/11/17 04:54:19;;;;;;;17.35;12.38;;;7.00;99.90;;;;;;5058512;28;20063;-69
2022/11/17 04:56:46;;;;;;;18.52;13.00;;;7.00;99.90;;;;;;5058449;28;20186;-69
2022/11/17 04:59:12;;;;;;;17.88;11.48;;;7.00;99.90;;;;;;5057310;28;20048;-70
2022/11/17 05:01:38;;;;;;;15.00;11.38;;;7.00;99.90;;;;;;5058106;28;20095;-72
2022/11/17 05:04:54;;;;;;;16.42;13.00;;;7.00;99.90;;;;;;5058340;28;20049;-73
2022/11/17 05:07:01;;;;;;;16.67;11.70;;;6.90;99.90;;;;;;5058969;28;20559;-73
2022/11/17 05:09:26;;;;;;;18.58;11.55;;;6.90;99.90;;;;;;5060952;28;20059;-71
2022/11/17 05:14:36;;;;;;;15.10;11.38;;;6.90;99.90;;;;;;5060599;28;20063;-70
2022/11/17 05:17:05;;;;;;;13.77;12.13;;;6.80;99.90;;;;;;5089914;28;20048;-71
2022/11/17 05:19:47;;;;;;;15.77;11.68;;;6.90;99.90;;;;;;5058220;28;20374;-70
2022/11/17 05:25:01;;;;;;;14.13;10.82;;;6.80;99.90;;;;;;5070277;28;20052;-71
2022/11/17 05:27:27;;;;;;;16.60;11.02;;;6.80;99.90;;;;;;5057503;28;20060;-71
2022/11/17 05:29:52;;;;;;;15.07;11.65;;;6.80;99.90;;;;;;5075269;28;20082;-72
2022/11/17 05:32:19;;;;;;;15.38;11.45;;;7.30;99.90;;;;;;5063856;28;20159;-71
2022/11/17 05:34:45;;;;;;;13.95;10.95;;;6.80;99.90;;;;;;5070229;28;20595;-72
2022/11/17 05:37:10;;;;;;;13.93;10.02;;;6.70;99.90;;;;;;5065236;28;20048;-70
2022/11/17 05:39:36;;;;;;;13.35;9.63;;;6.90;99.90;;;;;;5060470;28;20048;-71
2022/11/17 05:42:02;;;;;;;13.38;9.95;;;6.70;99.90;;;;;;5068898;28;20127;-71
2022/11/17 05:44:27;;;;;;;13.85;10.23;;;6.70;99.90;;;;;;5058141;28;20060;-70
2022/11/17 05:46:53;;;;;;;10.95;9.68;;;6.70;99.90;;;;;;5069556;28;20839;-72
2022/11/17 05:49:19;;;;;;;12.68;9.90;;;7.00;99.90;;;;;;5068695;28;20041;-71
2022/11/17 05:51:44;;;;;;;14.18;9.63;;;6.70;99.90;;;;;;5071630;28;20040;-71
2022/11/17 05:54:10;;;;;;;12.93;10.23;;;6.80;99.90;;;;;;5068312;28;20055;-71
2022/11/17 05:56:43;;;;;;;11.85;8.48;;;6.70;99.90;;;;;;5060958;28;20052;-70
2022/11/17 05:59:15;;;;;;;10.43;8.90;;;7.20;99.90;;;;;;5057517;28;20059;-71
2022/11/17 06:01:50;;;;;;;11.77;9.00;;;6.70;99.90;;;;;;5076590;28;20393;-71
2022/11/17 06:04:18;;;;;;;11.00;8.98;;;6.70;99.90;;;;;;5075061;28;20047;-71
2022/11/17 06:06:45;;;;;;;12.73;9.15;;;6.70;99.90;;;;;;5063403;28;20135;-71
2022/11/17 06:09:11;;;;;;;10.38;8.50;;;6.70;99.90;;;;;;5078495;28;20044;-71
2022/11/17 06:11:36;;;;;;;13.43;8.90;;;6.70;99.90;;;;;;5066390;28;20516;-71
2022/11/17 06:14:02;;;;;;;9.52;7.75;;;6.70;99.90;;;;;;5078277;28;20738;-70
2022/11/17 06:16:33;;;;;;;10.60;7.90;;;6.70;99.90;;;;;;5081484;28;20123;-71
2022/11/17 06:19:05;;;;;;;11.30;8.48;;;6.70;99.90;;;;;;5048859;28;20729;-71
2022/11/17 06:21:32;;;;;;;12.07;10.15;;;6.70;99.90;;;;;;5071683;28;20036;-70
2022/11/17 06:23:59;;;;;;;10.15;8.30;;;6.60;99.90;;;;;;5065018;28;20048;-71
2022/11/17 06:26:25;;;;;;;12.60;8.82;;;6.70;99.90;;;;;;5075549;28;20127;-70
2022/11/17 06:28:51;;;;;;;10.65;8.73;;;6.70;99.90;;;;;;5071647;28;20040;-70
2022/11/17 06:31:17;;;;;;;9.93;8.52;;;6.80;99.90;;;;;;5073997;28;20091;-70
2022/11/17 06:33:44;;;;;;;9.70;6.70;;;6.70;99.90;;;;;;5060519;28;20134;-69
2022/11/17 06:36:10;;;;;;;10.48;8.38;;;6.70;99.90;;;;;;5061509;28;20570;-70
2022/11/17 06:38:36;;;;;;;12.55;8.45;;;6.70;99.90;;;;;;5074282;28;20044;-69
2022/11/17 06:41:02;;;;;;;9.65;7.60;;;6.70;99.90;;;;;;5068223;28;20455;-70
2022/11/17 06:43:29;;;;;;;11.05;8.15;;;6.70;99.90;;;;;;5068212;28;20049;-70
2022/11/17 06:45:54;;;;;;;9.10;7.57;;;6.70;99.90;;;;;;5078080;28;20502;-71
2022/11/17 06:48:26;;;;;;;9.60;7.68;;;6.70;99.90;;;;;;5066300;28;20045;-71
2022/11/17 06:50:53;;;;;;;10.38;7.10;;;6.70;99.90;;;;;;5065750;28;20393;-70
2022/11/17 06:53:21;;;;;;;10.25;7.28;;;6.70;99.90;;;;;;5062650;28;20052;-70
2022/11/17 06:58:29;;;;;;;9.88;7.57;;;6.60;99.90;;;;;;5070253;28;20140;-71
2022/11/17 07:01:01;;;;;;;9.05;7.20;;;6.70;99.90;;;;;;5062492;28;20043;-71
2022/11/17 07:03:27;;;;;;;11.60;8.05;;;7.20;99.90;;;;;;5069030;28;20689;-70
2022/11/17 07:05:53;;;;;;;8.50;6.82;;;6.70;99.90;;;;;;5068257;28;20049;-70
2022/11/17 07:08:21;;;;;;;8.50;6.55;;;6.70;99.90;;;;;;5063815;28;20043;-71
2022/11/17 07:10:53;;;;;;;10.65;7.85;;;6.70;99.90;;;;;;5070175;28;20117;-71
2022/11/17 07:13:20;;;;;;;7.97;7.20;;;6.60;99.90;;;;;;5061592;28;20616;-71
2022/11/17 07:15:48;;;;;;;8.07;6.75;;;6.70;99.90;;;;;;5065550;28;20150;-70
2022/11/17 07:18:15;;;;;;;16.00;7.85;;;6.70;99.90;;;;;;5069297;28;20056;-71
2022/11/17 07:20:41;;;;;;;10.30;7.10;;;6.60;99.90;;;;;;5067349;28;20087;-71
2022/11/17 07:23:07;;;;;;;9.65;7.90;;;6.60;99.90;;;;;;5067640;28;20155;-71
2022/11/17 07:25:32;;;;;;;7.93;6.78;;;6.60;99.90;;;;;;5070320;28;20762;-70
2022/11/17 07:27:59;;;;;;;8.85;7.28;;;6.70;99.90;;;;;;5068505;28;20507;-72
2022/11/17 07:30:24;;;;;;;9.60;7.05;;;6.70;99.90;;;;;;5071282;28;20056;-70
2022/11/17 07:32:50;;;;;;;7.82;6.25;;;6.60;99.90;;;;;;5069282;28;20122;-70
2022/11/17 07:35:16;;;;;;;8.10;6.53;;;6.70;99.90;;;;;;5063434;28;20047;-71
2022/11/17 07:37:42;;;;;;;8.02;6.25;;;6.70;99.90;;;;;;5063280;28;20093;-70
2022/11/17 07:40:08;;;;;;;7.82;7.00;;;6.60;99.90;;;;;;5060349;28;20072;-70
2022/11/17 07:42:34;;;;;;;8.07;5.88;;;6.60;99.90;;;;;;5064813;28;20055;-73
2022/11/17 07:45:00;;;;;;;6.15;5.55;;;6.60;99.90;;;;;;5063801;28;20044;-74
2022/11/17 07:47:26;;;;;;;8.15;7.32;;;6.60;99.90;;;;;;5060664;28;20094;-74
2022/11/17 07:49:51;;;;;;;7.55;6.68;;;6.60;99.90;;;;;;5061496;28;20495;-73
2022/11/17 07:52:17;;;;;;;7.40;6.40;;;6.60;99.90;;;;;;5057316;28;20048;-74
2022/11/17 07:54:43;;;;;;;6.50;5.78;;;6.60;99.90;;;;;;5059826;28;20750;-73
2022/11/17 07:57:08;;;;;;;7.40;5.70;;;6.60;99.90;;;;;;5062363;28;20044;-73
2022/11/17 07:59:34;;;;;;;7.13;5.43;;;6.60;99.90;;;;;;5065521;28;20497;-74
2022/11/17 08:02:00;;;;;;;8.52;6.03;;;6.60;99.90;;;;;;5060071;28;20044;-74
2022/11/17 08:04:26;;;;;;;6.95;5.68;;;6.60;99.90;;;;;;5060759;28;20796;-74
2022/11/17 08:06:51;;;;;;;9.27;6.50;;;6.60;99.90;;;;;;5061004;28;20049;-73
2022/11/17 08:09:17;;;;;;;6.90;5.90;;;6.60;99.90;;;;;;5061875;28;20110;-73
2022/11/17 08:11:43;;;;;;;8.85;6.30;;;6.70;99.90;;;;;;5067986;28;20121;-74
2022/11/17 08:14:08;;;;;;;5.72;5.10;;;6.60;99.90;;;;;;5061609;28;20422;-73
2022/11/17 08:16:34;;;;;;;8.32;6.15;;;6.60;99.90;;;;;;5067463;28;20131;-73
2022/11/17 08:19:00;;;;;;;8.85;5.90;;;6.60;99.90;;;;;;5058526;28;20459;-73
2022/11/17 08:21:25;;;;;;;7.15;5.65;;;6.70;99.90;;;;;;5067583;28;20040;-74
2022/11/17 08:23:53;;;;;;;6.03;5.40;;;6.70;99.90;;;;;;5064590;28;20105;-75
2022/11/17 08:26:20;;;;;;;7.60;5.60;;;7.00;99.90;;;;;;5095703;27;20079;-74
2022/11/17 08:28:46;;;;;;;7.38;6.68;;;6.70;99.90;;;;;;5067587;28;20052;-74
2022/11/17 08:31:12;;;;;;;9.52;6.85;;;6.70;99.90;;;;;;5064698;28;20045;-74
2022/11/17 08:33:38;;;;;;;7.68;6.75;;;6.70;99.90;;;;;;5054217;28;20056;-74
2022/11/17 08:36:06;;;;;;;9.57;7.45;;;6.70;99.90;;;;;;5062180;28;20127;-73
2022/11/17 08:38:32;;;;;;;8.52;7.00;;;6.70;99.90;;;;;;5062100;28;20161;-72
2022/11/17 08:41:03;;;;;;;7.18;6.22;;;6.70;99.90;;;;;;5075780;28;20040;-73
2022/11/17 08:43:29;;;;;;;7.65;6.70;;;6.70;99.90;;;;;;5058696;28;20149;-72
2022/11/17 08:45:55;;;;;;;11.95;7.63;;;6.70;99.90;;;;;;5056380;28;20391;-71
2022/11/17 08:48:21;;;;;;;11.43;7.50;;;6.70;99.90;;;;;;5057105;28;20055;-73
2022/11/17 08:50:47;;;;;;;8.65;7.13;;;6.80;99.90;;;;;;5065661;28;20071;-72
2022/11/17 08:53:15;;;;;;;9.50;8.02;;;6.80;99.90;;;;;;5066413;28;20051;-74
2022/11/17 08:55:41;;;;;;;8.85;6.80;;;6.80;99.90;;;;;;5069905;28;20047;-73
2022/11/17 08:58:08;;;;;;;8.63;6.85;;;6.80;99.90;;;;;;5068637;28;20108;-74
2022/11/17 09:00:34;;;;;;;9.57;6.72;;;6.80;99.90;;;;;;5056589;28;20052;-72
2022/11/17 09:02:59;;;;;;;8.73;6.95;;;6.80;99.90;;;;;;5063718;28;20549;-73
2022/11/17 09:05:25;;;;;;;12.10;7.90;;;6.80;99.90;;;;;;5053947;28;20155;-72
2022/11/17 09:07:51;;;;;;;10.40;7.63;;;7.10;99.90;;;;;;5062450;28;20045;-72
2022/11/17 09:10:17;;;;;;;13.00;8.48;;;6.80;99.90;;;;;;5061132;28;20844;-72
2022/11/17 09:12:42;;;;;;;10.05;7.50;;;6.80;99.90;;;;;;5068209;28;20616;-75
2022/11/17 09:15:09;;;;;;;11.32;7.78;;;6.80;99.90;;;;;;5060231;28;20063;-73
2022/11/17 09:17:35;;;;;;;7.50;6.65;;;6.70;99.90;;;;;;5064299;28;20047;-74
2022/11/17 09:20:01;;;;;;;9.32;7.45;;;6.70;99.90;;;;;;5058628;28;20102;-74
2022/11/17 09:22:26;;;;;;;7.32;6.63;;;6.70;99.90;;;;;;5056711;28;20559;-73
2022/11/17 09:24:52;;;;;;;9.95;6.82;;;6.80;99.90;;;;;;5096120;28;20057;-75
2022/11/17 09:27:18;;;;;;;9.90;6.53;;;6.70;99.90;;;;;;5062715;28;20044;-75
2022/11/17 09:29:44;;;;;;;8.52;7.70;;;6.70;99.90;;;;;;5058218;28;20087;-74
2022/11/17 09:32:10;;;;;;;8.25;6.88;;;6.80;99.90;;;;;;5061418;28;20044;-74
2022/11/17 09:34:35;;;;;;;8.88;7.97;;;6.70;99.90;;;;;;5093270;28;20503;-74
2022/11/17 09:37:01;;;;;;;9.75;7.38;;;6.80;99.90;;;;;;5058880;28;20064;-75
2022/11/17 09:39:26;;;;;;;7.93;6.55;;;6.70;99.90;;;;;;5057689;28;20060;-74
2022/11/17 09:41:55;;;;;;;6.65;5.90;;;7.40;99.90;;;;;;5057997;28;20044;-75
2022/11/17 09:44:43;;;;;;;8.73;6.40;;;6.70;99.90;;;;;;5090161;28;20076;-74
2022/11/17 09:47:30;;;;;;;7.20;6.35;;;6.70;99.90;;;;;;5063391;28;20219;-74
2022/11/17 09:50:15;;;;;;;8.07;6.22;;;6.70;99.90;;;;;;5070701;28;20102;-74
2022/11/17 09:53:05;;;;;;;7.55;6.10;;;6.80;99.90;;;;;;5070520;28;20048;-75
2022/11/17 09:55:44;;;;;;;7.40;5.93;;;6.70;99.90;;;;;;5049929;28;20049;-75
2022/11/17 09:58:31;;;;;;;7.47;6.00;;;6.70;99.90;;;;;;5065859;28;20083;-75
2022/11/17 10:00:57;;;;;;;8.73;7.18;;;6.70;99.90;;;;;;5092944;28;20503;-73
2022/11/17 10:03:33;;;;;;;8.15;6.90;;;6.70;99.90;;;;;;5100666;28;20175;-75
2022/11/17 10:06:05;;;;;;;7.18;6.47;;;6.70;99.90;;;;;;5061381;28;20040;-74
2022/11/17 10:08:31;;;;;;;8.98;6.85;;;6.70;99.90;;;;;;5038468;28;20052;-73
2022/11/17 10:10:56;;;;;;;10.30;7.10;;;6.70;99.90;;;;;;5065219;28;20121;-75
2022/11/17 10:13:27;;;;;;;12.10;7.50;;;6.70;99.90;;;;;;5061507;28;20074;-74
2022/11/17 10:16:05;;;;;;;7.35;6.53;;;6.80;99.90;;;;;;5073425;28;20055;-74
2022/11/17 10:18:35;;;;;;;7.68;6.82;;;6.80;99.90;;;;;;5046050;28;20049;-74
2022/11/17 10:21:02;;;;;;;9.27;7.38;;;6.70;99.90;;;;;;5056789;28;20507;-74
2022/11/17 10:23:42;;;;;;;7.20;6.40;;;6.70;99.90;;;;;;5059852;28;20149;-75
2022/11/17 10:26:14;;;;;;;8.57;6.28;;;6.70;99.90;;;;;;5060871;28;20048;-74
2022/11/17 10:28:40;;;;;;;10.23;8.05;;;6.80;99.90;;;;;;5060782;28;20049;-74
2022/11/17 10:31:09;;;;;;;7.90;6.93;;;6.80;99.90;;;;;;5063026;28;20054;-74
2022/11/17 10:33:37;;;;;;;9.45;7.50;;;6.80;99.90;;;;;;5060631;28;20821;-73
2022/11/17 10:36:11;;;;;;;8.82;7.30;;;6.80;99.90;;;;;;5065405;28;20541;-74
2022/11/17 10:38:43;;;;;;;10.13;7.07;;;6.90;99.90;;;;;;5068916;28;20051;-73
2022/11/17 10:41:14;;;;;;;8.75;6.25;;;6.80;99.90;;;;;;5077021;28;20966;-73
2022/11/17 10:43:52;;;;;;;9.18;6.40;;;6.90;99.90;;;;;;5067687;28;20055;-74
2022/11/17 10:46:18;;;;;;;10.23;6.75;;;6.90;99.90;;;;;;5072165;28;20136;-75
2022/11/17 10:49:07;;;;;;;6.15;5.25;;;6.90;99.90;;;;;;5065160;28;20143;-74
2022/11/17 10:51:33;;;;;;;8.18;6.25;;;6.90;99.90;;;;;;5060229;28;20052;-73
2022/11/17 10:54:04;;;;;;;6.32;5.72;;;6.90;99.90;;;;;;5068944;28;20060;-73
2022/11/17 10:56:52;;;;;;;8.23;6.30;;;7.10;99.90;;;;;;5063209;28;20444;-74
2022/11/17 10:59:41;;;;;;;9.25;7.80;;;6.80;99.90;;;;;;5059863;28;20159;-74
2022/11/17 11:02:36;;;;;;;7.35;6.35;;;6.90;99.90;;;;;;5066538;28;20032;-74
2022/11/17 11:05:16;;;;;;;9.82;7.10;;;6.90;99.90;;;;;;5057034;28;20093;-73
2022/11/17 11:07:42;;;;;;;7.63;6.13;;;6.90;99.90;;;;;;5063828;28;20151;-74
2022/11/17 11:10:16;;;;;;;6.85;5.70;;;6.90;99.90;;;;;;5060175;28;20105;-74
2022/11/17 11:13:03;;;;;;;9.27;6.05;;;6.90;99.90;;;;;;5061818;28;20628;-73
2022/11/17 11:15:35;;;;;;;7.25;5.72;;;6.90;99.90;;;;;;5064506;28;20052;-74
2022/11/17 11:18:12;;;;;;;7.38;5.60;;;7.00;99.90;;;;;;5061811;28;20117;-73
2022/11/17 11:20:43;;;;;;;7.22;5.78;;;6.90;99.90;;;;;;5070297;28;20051;-72
2022/11/17 11:23:19;;;;;;;7.45;6.22;;;7.00;99.90;;;;;;5070365;28;20139;-73
2022/11/17 11:25:55;;;;;;;7.55;6.28;;;7.00;99.90;;;;;;5061500;28;20048;-73
2022/11/17 11:28:59;;;;;;;7.10;6.25;;;7.00;99.90;;;;;;5059177;28;20366;-73
2022/11/17 11:31:49;;;;;;;6.95;6.25;;;7.00;99.90;;;;;;5064898;28;20392;-75
2022/11/17 11:34:43;;;;;;;9.98;7.53;;;7.10;99.90;;;;;;5055293;28;20119;-75
2022/11/17 11:37:12;;;;;;;9.05;7.07;;;7.00;99.90;;;;;;5062597;28;20346;-74
2022/11/17 11:39:46;;;;;;;8.20;6.38;;;7.20;99.90;;;;;;5067195;28;20271;-74
2022/11/17 11:42:23;;;;;;;9.85;7.10;;;7.00;99.90;;;;;;5060876;28;20044;-74
2022/11/17 11:45:17;;;;;;;7.57;6.07;;;7.00;99.90;;;;;;5064529;28;20055;-75
2022/11/17 11:48:27;;;;;;;7.10;6.15;;;7.00;99.90;;;;;;5061940;28;20050;-75
2022/11/17 11:51:08;;;;;;;10.25;6.80;;;7.00;99.90;;;;;;4991291;28;20037;-74
2022/11/17 11:53:47;;;;;;;8.32;6.45;;;7.00;99.90;;;;;;4976735;28;20046;-75
2022/11/17 11:56:32;;;;;;;10.43;7.18;;;7.00;99.90;;;;;;5024895;28;20074;-74
2022/11/17 11:59:04;;;;;;;9.40;7.18;;;7.00;99.90;;;;;;5059894;28;20219;-74
2022/11/17 12:01:58;;;;;;;9.00;6.60;;;7.00;99.90;;;;;;5063730;28;20044;-74
2022/11/17 12:04:42;;;;;;;8.35;6.85;;;7.00;99.90;;;;;;5055315;28;20127;-73
2022/11/17 12:07:22;;;;;;;8.52;6.72;;;7.00;99.90;;;;;;5059354;28;20124;-72
2022/11/17 12:09:54;;;;;;;8.20;6.45;;;7.00;99.90;;;;;;5056256;28;21192;-72
2022/11/17 12:12:32;;;;;;;8.93;6.72;;;7.10;99.90;;;;;;5063630;28;20095;-71
2022/11/17 12:15:17;;;;;;;6.75;6.10;;;7.00;99.90;;;;;;5062987;28;20135;-72
2022/11/17 12:17:51;;;;;;;8.80;6.57;;;7.00;99.90;;;;;;5064437;28;20462;-73
2022/11/17 12:20:43;;;;;;;7.93;5.88;;;7.10;99.90;;;;;;5064462;28;20181;-73
2022/11/17 12:23:30;;;;;;;8.98;5.95;;;7.00;99.90;;;;;;5058241;28;20056;-72
2022/11/17 12:25:57;;;;;;;7.03;6.28;;;7.00;99.90;;;;;;5056465;28;20803;-72
2022/11/17 12:28:28;;;;;;;7.65;5.85;;;7.10;99.90;;;;;;5067392;28;20044;-72
2022/11/17 12:30:59;;;;;;;6.97;6.15;;;7.10;99.90;;;;;;5062832;28;20056;-72
2022/11/17 12:33:50;;;;;;;7.00;5.78;;;7.10;99.90;;;;;;5100316;27;20854;-74
2022/11/17 12:36:30;;;;;;;6.50;5.60;;;7.10;99.90;;;;;;5061813;28;20044;-73
2022/11/17 12:38:57;;;;;;;9.15;6.40;;;7.10;99.90;;;;;;5057762;28;20079;-72
2022/11/17 12:41:48;;;;;;;6.28;5.20;;;7.10;99.90;;;;;;5056477;28;21014;-72
2022/11/17 12:44:53;;;;;;;8.43;6.43;;;7.20;99.90;;;;;;5059009;28;20340;-75
2022/11/17 12:47:30;;;;;;;7.25;6.10;;;7.20;99.90;;;;;;5013998;28;20118;-72
2022/11/17 12:49:59;;;;;;;7.05;5.15;;;7.20;99.90;;;;;;5057084;28;20063;-72
2022/11/17 12:52:47;;;;;;;6.82;5.25;;;7.20;99.90;;;;;;5065132;28;20082;-72
2022/11/17 12:55:27;;;;;;;8.43;5.22;;;7.20;99.90;;;;;;5057484;28;20114;-72
2022/11/17 12:58:10;;;;;;;5.50;5.00;;;7.20;99.90;;;;;;5054061;28;20078;-72
2022/11/17 13:01:13;;;;;;;5.55;4.38;;;7.30;99.90;;;;;;5055455;28;20122;-72
2022/11/17 13:03:56;;;;;;;5.82;5.03;;;7.30;99.90;;;;;;5047251;28;20056;-73
2022/11/17 13:06:22;;;;;;;5.13;4.63;;;7.40;99.90;;;;;;5054968;28;20044;-72
2022/11/17 13:09:00;;;;;;;6.30;4.53;;;7.40;99.90;;;;;;5064401;28;20912;-71
2022/11/17 13:11:26;;;;;;;7.10;5.60;;;7.30;99.90;;;;;;5056528;28;20155;-72
2022/11/17 13:14:14;;;;;;;6.25;5.15;;;7.40;99.90;;;;;;5055908;28;20060;-73
2022/11/17 13:16:48;;;;;;;7.13;5.57;;;7.40;99.90;;;;;;5061283;28;20109;-72
2022/11/17 13:19:32;;;;;;;6.82;5.43;;;7.40;99.90;;;;;;5060316;28;20115;-74
2022/11/17 13:22:02;;;;;;;7.53;5.80;;;7.30;99.90;;;;;;5059295;28;20074;-72
2022/11/17 13:24:37;;;;;;;6.88;5.50;;;7.40;99.90;;;;;;5059056;28;20051;-72
2022/11/17 13:27:08;;;;;;;8.00;5.80;;;7.40;99.90;;;;;;5057442;28;20083;-71
2022/11/17 13:29:34;;;;;;;7.07;5.88;;;7.40;99.90;;;;;;5058120;28;20052;-73
2022/11/17 13:32:20;;;;;;;8.07;5.93;;;7.40;99.90;;;;;;5057646;28;20040;-72
2022/11/17 13:34:52;;;;;;;7.05;6.13;;;7.40;99.90;;;;;;5054718;28;20730;-73
2022/11/17 13:37:23;;;;;;;6.28;5.50;;;7.40;99.90;;;;;;5055966;28;20052;-72
2022/11/17 13:40:21;;;;;;;5.93;5.22;;;7.40;99.90;;;;;;5062695;28;20160;-73